createdAt,value
2022-11-13T00:00:24.722Z,101514.91
2022-11-13T00:03:10.263Z,101519.69
2022-11-13T00:06:02.379Z,101517.31
2022-11-13T00:08:54.121Z,101517.38
2022-11-13T00:11:39.199Z,101514.16
2022-11-13T00:14:24.769Z,101510.31
2022-11-13T00:17:10.127Z,101508.50
2022-11-13T00:19:55.799Z,101503.78
2022-11-13T00:22:41.221Z,101500.00
2022-11-13T00:25:33.902Z,101497.19
2022-11-13T00:28:19.063Z,101491.78
2022-11-13T00:31:05.996Z,101486.72
2022-11-13T00:36:56.906Z,101484.56
2022-11-13T00:39:42.274Z,101473.47
2022-11-13T00:42:27.869Z,101474.53
2022-11-13T00:45:14.285Z,101481.97
2022-11-13T00:48:08.609Z,101469.56
2022-11-13T00:50:54.125Z,101481.44
2022-11-13T00:53:39.372Z,101475.22
2022-11-13T00:56:24.938Z,101477.72
2022-11-13T00:59:10.735Z,101485.25
2022-11-13T01:01:55.684Z,101481.22
2022-11-13T01:04:52.620Z,101486.06
2022-11-13T01:07:38.116Z,101478.13
2022-11-13T01:10:24.885Z,101483.16
2022-11-13T01:13:10.099Z,101479.63
2022-11-13T01:15:55.456Z,101478.06
2022-11-13T01:18:48.784Z,101476.69
2022-11-13T01:21:34.034Z,101482.09
2022-11-13T01:24:19.345Z,101481.84
2022-11-13T01:27:07.429Z,101474.09
2022-11-13T01:29:53.128Z,101473.75
2022-11-13T01:32:38.690Z,101475.41
2022-11-13T01:35:23.847Z,101474.66
2022-11-13T01:38:09.414Z,101473.59
2022-11-13T01:40:54.826Z,101483.53
2022-11-13T01:43:47.585Z,101471.94
2022-11-13T01:46:41.109Z,101480.63
2022-11-13T01:49:34.861Z,101476.88
2022-11-13T01:52:32.052Z,101480.97
2022-11-13T01:55:32.828Z,101472.06
2022-11-13T01:58:17.979Z,101470.47
2022-11-13T02:01:03.385Z,101468.00
2022-11-13T02:03:48.892Z,101463.25
2022-11-13T02:06:43.027Z,101459.69
2022-11-13T02:09:49.369Z,101454.00
2022-11-13T02:12:37.189Z,101444.72
2022-11-13T02:15:25.689Z,101442.53
2022-11-13T02:18:11.397Z,101442.59
2022-11-13T02:21:02.198Z,101444.78
2022-11-13T02:24:12.001Z,101433.06
2022-11-13T02:27:04.828Z,101440.88
2022-11-13T02:29:49.878Z,101446.75
2022-11-13T02:32:35.233Z,101440.78
2022-11-13T02:35:27.043Z,101443.69
2022-11-13T02:38:11.968Z,101437.34
2022-11-13T02:40:57.269Z,101442.59
2022-11-13T02:43:58.482Z,101438.19
2022-11-13T02:46:44.161Z,101443.81
2022-11-13T02:49:29.511Z,101443.03
2022-11-13T02:52:14.916Z,101435.09
2022-11-13T02:55:00.242Z,101439.44
2022-11-13T02:57:45.294Z,101437.31
2022-11-13T03:00:30.763Z,101439.28
2022-11-13T03:03:24.827Z,101428.44
2022-11-13T03:06:25.367Z,101430.25
2022-11-13T03:09:10.645Z,101437.16
2022-11-13T03:11:56.295Z,101429.94
2022-11-13T03:14:41.400Z,101423.25
2022-11-13T03:17:26.891Z,101418.06
2022-11-13T03:20:12.206Z,101424.28
2022-11-13T03:22:57.473Z,101421.81
2022-11-13T03:25:42.923Z,101411.97
2022-11-13T03:28:28.257Z,101408.09
2022-11-13T03:31:14.106Z,101422.03
2022-11-13T03:33:59.446Z,101407.28
2022-11-13T03:36:44.734Z,101407.81
2022-11-13T03:39:29.917Z,101403.94
2022-11-13T03:42:15.257Z,101405.31
2022-11-13T03:45:00.770Z,101410.38
2022-11-13T03:47:46.021Z,101402.78
2022-11-13T03:50:31.654Z,101402.19
2022-11-13T03:53:16.692Z,101395.22
2022-11-13T03:56:02.022Z,101397.91
2022-11-13T03:58:49.663Z,101392.19
2022-11-13T04:01:35.146Z,101387.69
2022-11-13T04:04:20.716Z,101383.94
2022-11-13T04:07:06.561Z,101386.03
2022-11-13T04:09:51.620Z,101389.41
2022-11-13T04:12:37.132Z,101376.22
2022-11-13T04:15:27.848Z,101377.75
2022-11-13T04:18:13.054Z,101371.19
2022-11-13T04:21:00.103Z,101366.19
2022-11-13T04:23:48.477Z,101357.81
2022-11-13T04:26:33.892Z,101357.78
2022-11-13T04:29:19.175Z,101367.44
2022-11-13T04:32:07.600Z,101357.38
2022-11-13T04:34:53.038Z,101350.69
2022-11-13T04:37:38.507Z,101354.03
2022-11-13T04:40:23.791Z,101350.66
2022-11-13T04:43:09.102Z,101347.19
2022-11-13T04:45:54.290Z,101335.72
2022-11-13T04:48:39.568Z,101332.38
2022-11-13T04:51:24.935Z,101330.22
2022-11-13T04:54:10.248Z,101335.19
2022-11-13T04:56:55.887Z,101353.44
2022-11-13T04:59:40.963Z,101343.53
2022-11-13T05:02:26.423Z,101354.41
2022-11-13T05:05:11.767Z,101353.66
2022-11-13T05:07:57.385Z,101350.97
2022-11-13T05:10:50.889Z,101345.03
2022-11-13T05:13:36.833Z,101352.81
2022-11-13T05:16:21.813Z,101352.31
2022-11-13T05:19:07.453Z,101343.66
2022-11-13T05:21:52.611Z,101349.72
2022-11-13T05:24:38.282Z,101346.88
2022-11-13T05:27:23.428Z,101348.63
2022-11-13T05:30:09.216Z,101353.47
2022-11-13T05:32:54.629Z,101362.50
2022-11-13T05:35:39.993Z,101371.03
2022-11-13T05:38:25.458Z,101382.72
2022-11-13T05:41:15.901Z,101399.22
2022-11-13T05:44:01.581Z,101406.84
2022-11-13T05:46:46.881Z,101408.59
2022-11-13T05:49:38.469Z,101409.75
2022-11-13T05:52:29.959Z,101419.69
2022-11-13T05:55:15.602Z,101421.22
2022-11-13T05:58:00.521Z,101421.63
2022-11-13T06:00:46.168Z,101433.09
2022-11-13T06:03:31.359Z,101444.41
2022-11-13T06:06:18.794Z,101441.38
2022-11-13T06:09:05.592Z,101445.47
2022-11-13T06:11:51.037Z,101445.22
2022-11-13T06:14:36.472Z,101450.41
2022-11-13T06:17:21.903Z,101451.53
2022-11-13T06:20:07.946Z,101443.47
2022-11-13T06:23:01.905Z,101456.47
2022-11-13T06:25:47.361Z,101459.97
2022-11-13T06:28:33.107Z,101477.00
2022-11-13T06:31:27.127Z,101477.34
2022-11-13T06:34:12.284Z,101487.38
2022-11-13T06:36:58.094Z,101495.47
2022-11-13T06:39:43.283Z,101516.16
2022-11-13T06:42:28.699Z,101518.00
2022-11-13T06:45:14.125Z,101522.63
2022-11-13T06:47:59.577Z,101524.63
2022-11-13T06:50:48.465Z,101544.97
2022-11-13T06:53:34.395Z,101560.06
2022-11-13T06:56:19.957Z,101568.78
2022-11-13T06:59:08.340Z,101578.59
2022-11-13T07:01:54.206Z,101580.16
2022-11-13T07:04:39.482Z,101579.44
2022-11-13T07:07:25.046Z,101588.22
2022-11-13T07:10:10.585Z,101583.13
2022-11-13T07:12:59.812Z,101589.50
2022-11-13T07:15:54.587Z,101594.28
2022-11-13T07:18:39.978Z,101601.38
2022-11-13T07:21:25.653Z,101606.16
2022-11-13T07:24:16.608Z,101607.53
2022-11-13T07:27:12.469Z,101619.81
2022-11-13T07:30:03.318Z,101616.72
2022-11-13T07:32:49.494Z,101617.44
2022-11-13T07:35:41.898Z,101617.03
2022-11-13T07:38:27.431Z,101617.28
2022-11-13T07:41:12.993Z,101623.81
2022-11-13T07:43:58.112Z,101624.06
2022-11-13T07:46:43.456Z,101624.91
2022-11-13T07:49:28.596Z,101630.09
2022-11-13T07:52:13.834Z,101632.78
2022-11-13T07:54:59.155Z,101628.13
2022-11-13T07:57:44.368Z,101630.78
2022-11-13T08:00:31.187Z,101627.50
2022-11-13T08:03:17.137Z,101633.16
2022-11-13T08:06:05.231Z,101641.13
2022-11-13T08:08:50.452Z,101643.28
2022-11-13T08:11:36.191Z,101646.88
2022-11-13T08:14:21.596Z,101663.38
2022-11-13T08:17:07.067Z,101697.22
2022-11-13T08:19:52.491Z,101727.09
2022-11-13T08:22:37.894Z,101739.25
2022-11-13T08:25:25.402Z,101744.06
2022-11-13T08:28:13.312Z,101754.31
2022-11-13T08:31:01.625Z,101757.31
2022-11-13T08:33:46.987Z,101764.63
2022-11-13T08:36:32.232Z,101767.38
2022-11-13T08:39:17.685Z,101769.66
2022-11-13T08:42:03.902Z,101762.25
2022-11-13T08:44:49.136Z,101754.69
2022-11-13T08:47:34.344Z,101754.06
2022-11-13T08:50:19.709Z,101758.06
2022-11-13T08:53:05.598Z,101756.53
2022-11-13T08:55:50.950Z,101750.34
2022-11-13T08:58:36.309Z,101747.06
2022-11-13T09:01:22.795Z,101736.28
2022-11-13T09:04:08.415Z,101731.44
2022-11-13T09:06:53.785Z,101724.31
2022-11-13T09:09:39.121Z,101729.38
2022-11-13T09:12:24.671Z,101730.47
2022-11-13T09:15:11.386Z,101719.38
2022-11-13T09:18:00.655Z,101705.19
2022-11-13T09:20:48.789Z,101702.19
2022-11-13T09:27:16.708Z,101701.00
2022-11-13T09:30:34.145Z,101697.81
2022-11-13T09:33:19.527Z,101685.63
2022-11-13T09:37:42.507Z,101691.00
2022-11-13T09:40:36.035Z,101689.91
2022-11-13T09:43:44.675Z,101689.91
2022-11-13T09:46:43.246Z,101687.50
2022-11-13T09:49:41.982Z,101679.53
2022-11-13T09:52:40.456Z,101684.31
2022-11-13T09:55:36.629Z,101681.53
2022-11-13T09:58:39.995Z,101679.69
2022-11-13T10:02:13.114Z,101674.25
2022-11-13T10:05:33.918Z,101665.41
2022-11-13T10:08:55.348Z,101668.38
2022-11-13T10:12:17.558Z,101679.88
2022-11-13T10:15:48.851Z,101668.94
2022-11-13T10:18:45.658Z,101667.81
2022-11-13T10:21:48.074Z,101667.25
2022-11-13T10:25:14.056Z,101659.97
2022-11-13T10:28:48.889Z,101682.38
2022-11-13T10:31:53.020Z,101676.75
2022-11-13T10:35:08.525Z,101669.16
2022-11-13T10:38:26.990Z,101672.09
2022-11-13T10:41:22.381Z,101662.06
2022-11-13T10:44:40.274Z,101650.00
2022-11-13T10:48:02.097Z,101638.06
2022-11-13T10:50:36.376Z,101613.38
2022-11-13T10:53:22.087Z,101585.16
2022-11-13T10:56:37.776Z,101570.19
2022-11-13T10:59:32.221Z,101554.13
2022-11-13T11:02:25.827Z,101538.38
2022-11-13T11:05:23.033Z,101524.50
2022-11-13T11:08:13.353Z,101509.00
2022-11-13T11:11:18.888Z,101501.69
2022-11-13T11:14:51.004Z,101486.94
2022-11-13T11:17:55.429Z,101468.50
2022-11-13T11:21:04.150Z,101449.75
2022-11-13T11:23:57.663Z,101429.94
2022-11-13T11:26:49.503Z,101418.44
2022-11-13T11:29:36.798Z,101411.63
2022-11-13T11:32:39.144Z,101392.50
2022-11-13T11:35:49.502Z,101379.16
2022-11-13T11:38:45.495Z,101374.09
2022-11-13T11:41:40.138Z,101355.75
2022-11-13T11:44:31.675Z,101355.44
2022-11-13T11:47:18.100Z,101350.59
2022-11-13T11:50:05.195Z,101339.75
2022-11-13T11:52:59.763Z,101333.94
2022-11-13T11:56:31.614Z,101345.94
2022-11-13T11:59:29.867Z,101321.41
2022-11-13T12:03:02.160Z,101311.06
2022-11-13T12:06:20.850Z,101302.25
2022-11-13T12:09:13.900Z,101305.44
2022-11-13T12:12:18.143Z,101298.41
2022-11-13T12:15:29.296Z,101293.41
2022-11-13T12:18:22.814Z,101284.53
2022-11-13T12:21:11.189Z,101287.56
2022-11-13T12:27:53.457Z,101271.03
2022-11-13T12:31:14.274Z,101273.84
2022-11-13T12:34:21.315Z,101266.03
2022-11-13T12:37:19.854Z,101257.81
2022-11-13T12:40:42.911Z,101249.66
2022-11-13T12:43:42.227Z,101247.31
2022-11-13T12:53:56.146Z,101232.66
2022-11-13T12:56:41.256Z,101233.63
2022-11-13T12:59:35.083Z,101221.44
2022-11-13T13:02:37.502Z,101224.28
2022-11-13T13:05:35.011Z,101225.94
2022-11-13T13:08:41.786Z,101214.59
2022-11-13T13:11:48.769Z,101211.09
2022-11-13T13:14:57.135Z,101212.44
2022-11-13T13:17:42.531Z,101205.06
2022-11-13T13:20:31.624Z,101201.94
2022-11-13T13:23:46.222Z,101199.56
2022-11-13T13:26:31.546Z,101188.06
2022-11-13T13:29:20.829Z,101185.38
2022-11-13T13:32:52.561Z,101183.88
2022-11-13T13:36:15.315Z,101174.53
2022-11-13T13:39:38.905Z,101173.88
2022-11-13T13:42:46.993Z,101169.88
2022-11-13T13:45:46.945Z,101157.19
2022-11-13T13:48:32.297Z,101156.38
2022-11-13T13:51:34.624Z,101148.81
2022-11-13T13:54:23.915Z,101154.03
2022-11-13T13:57:13.674Z,101142.34
2022-11-13T13:59:58.938Z,101134.66
2022-11-13T14:02:55.426Z,101131.00
2022-11-13T14:05:40.453Z,101124.16
2022-11-13T14:08:27.109Z,101118.97
2022-11-13T14:11:29.922Z,101118.81
2022-11-13T14:14:23.165Z,101121.66
2022-11-13T14:17:10.337Z,101119.31
2022-11-13T14:20:00.647Z,101124.81
2022-11-13T14:22:55.107Z,101126.13
2022-11-13T14:25:44.565Z,101133.06
2022-11-13T14:28:32.858Z,101125.59
2022-11-13T14:31:18.493Z,101128.72
2022-11-13T14:34:10.244Z,101133.13
2022-11-13T14:36:55.833Z,101132.97
2022-11-13T14:39:45.473Z,101130.88
2022-11-13T14:42:37.299Z,101142.00
2022-11-13T14:45:24.139Z,101142.00
2022-11-13T14:48:25.131Z,101145.84
2022-11-13T14:51:24.571Z,101142.94
2022-11-13T14:55:08.000Z,101142.47
2022-11-13T14:57:49.570Z,101142.69
2022-11-13T15:00:36.677Z,101146.34
2022-11-13T15:03:22.176Z,101147.13
2022-11-13T15:06:27.419Z,101147.50
2022-11-13T15:09:15.196Z,101150.09
2022-11-13T15:12:00.586Z,101142.47
2022-11-13T15:14:45.845Z,101147.38
2022-11-13T15:17:31.374Z,101145.31
2022-11-13T15:20:19.930Z,101145.44
2022-11-13T15:23:05.184Z,101163.06
2022-11-13T15:25:50.666Z,101170.59
2022-11-13T15:28:41.535Z,101193.59
2022-11-13T15:31:33.307Z,101205.78
2022-11-13T15:34:18.483Z,101220.06
2022-11-13T15:37:10.926Z,101235.56
2022-11-13T15:39:56.323Z,101254.47
2022-11-13T15:42:43.669Z,101271.31
2022-11-13T15:45:28.849Z,101289.31
2022-11-13T15:48:14.097Z,101298.69
2022-11-13T15:50:59.357Z,101311.69
2022-11-13T15:53:55.642Z,101307.78
2022-11-13T15:56:40.799Z,101319.53
2022-11-13T15:59:26.218Z,101337.00
2022-11-13T16:02:11.495Z,101339.13
2022-11-13T16:04:57.399Z,101356.63
2022-11-13T16:07:43.118Z,101361.25
2022-11-13T16:10:28.474Z,101369.69
2022-11-13T16:13:13.972Z,101376.09
2022-11-13T16:16:00.146Z,101385.47
2022-11-13T16:18:46.124Z,101390.09
2022-11-13T16:21:31.541Z,101402.25
2022-11-13T16:24:19.916Z,101418.75
2022-11-13T16:27:09.275Z,101423.47
2022-11-13T16:29:54.536Z,101435.94
2022-11-13T16:32:39.853Z,101438.69
2022-11-13T16:35:25.209Z,101449.03
2022-11-13T16:38:26.428Z,101455.44
2022-11-13T16:41:16.657Z,101463.13
2022-11-13T16:44:01.704Z,101477.78
2022-11-13T16:46:49.574Z,101492.44
2022-11-13T16:49:34.830Z,101499.56
2022-11-13T16:52:20.232Z,101504.28
2022-11-13T16:55:06.780Z,101500.28
2022-11-13T16:57:54.971Z,101509.97
2022-11-13T17:00:40.184Z,101511.72
2022-11-13T17:06:31.772Z,101529.34
2022-11-13T17:09:16.710Z,101540.94
2022-11-13T17:12:02.512Z,101537.09
2022-11-13T17:14:47.998Z,101548.91
2022-11-13T17:17:33.277Z,101540.56
2022-11-13T17:20:43.992Z,101553.97
2022-11-13T17:23:29.953Z,101551.06
2022-11-13T17:26:15.546Z,101551.34
2022-11-13T17:29:02.102Z,101573.28
2022-11-13T17:31:47.817Z,101567.53
2022-11-13T17:34:43.607Z,101560.81
2022-11-13T17:37:28.910Z,101561.09
2022-11-13T17:40:28.056Z,101563.34
2022-11-13T17:43:15.305Z,101577.59
2022-11-13T17:46:00.717Z,101583.03
2022-11-13T17:48:52.973Z,101611.03
2022-11-13T17:51:46.219Z,101635.94
2022-11-13T17:54:39.283Z,101647.94
2022-11-13T17:57:27.096Z,101655.56
2022-11-13T18:00:25.162Z,101674.03
2022-11-13T18:03:10.517Z,101685.34
2022-11-13T18:05:56.430Z,101686.53
2022-11-13T18:08:44.890Z,101698.94
2022-11-13T18:11:30.712Z,101711.63
2022-11-13T18:14:15.942Z,101710.94
2022-11-13T18:17:10.298Z,101714.28
2022-11-13T18:22:55.697Z,101722.00
2022-11-13T18:25:46.409Z,101737.41
2022-11-13T18:29:01.905Z,101752.91
2022-11-13T18:32:00.417Z,101766.63
2022-11-13T18:34:59.467Z,101779.94
2022-11-13T18:38:04.208Z,101775.59
2022-11-13T18:44:04.276Z,101734.88
2022-11-13T18:47:07.949Z,101724.88
2022-11-13T18:50:01.953Z,101732.03
2022-11-13T18:52:55.225Z,101725.03
2022-11-13T18:55:40.533Z,101713.44
2022-11-13T18:58:25.972Z,101712.19
2022-11-13T19:01:22.176Z,101715.91
2022-11-13T19:04:26.124Z,101708.19
2022-11-13T19:07:18.038Z,101700.94
2022-11-13T19:10:04.157Z,101702.78
2022-11-13T19:13:15.205Z,101694.81
2022-11-13T19:16:12.739Z,101693.13
2022-11-13T19:19:00.030Z,101694.91
2022-11-13T19:21:45.896Z,101691.72
2022-11-13T19:24:34.471Z,101701.91
2022-11-13T19:27:19.625Z,101693.84
2022-11-13T19:30:05.428Z,101688.41
2022-11-13T19:32:56.106Z,101685.59
2022-11-13T19:35:43.222Z,101689.38
2022-11-13T19:38:32.233Z,101672.31
2022-11-13T19:41:19.547Z,101679.84
2022-11-13T19:44:15.608Z,101678.88
2022-11-13T19:47:07.374Z,101672.03
2022-11-13T19:49:55.783Z,101678.75
2022-11-13T19:52:48.907Z,101666.59
2022-11-13T19:55:34.821Z,101664.22
2022-11-13T19:59:10.895Z,101657.50
2022-11-13T20:02:03.999Z,101638.19
2022-11-13T20:04:49.306Z,101630.59
2022-11-13T20:07:34.999Z,101629.34
2022-11-13T20:10:24.282Z,101620.28
2022-11-13T20:13:09.705Z,101627.41
2022-11-13T20:15:55.215Z,101616.19
2022-11-13T20:18:41.751Z,101626.81
2022-11-13T20:21:28.699Z,101623.59
2022-11-13T20:24:13.897Z,101617.97
2022-11-13T20:26:59.238Z,101623.41
2022-11-13T20:29:44.772Z,101621.88
2022-11-13T20:32:30.304Z,101626.50
2022-11-13T20:35:24.921Z,101613.75
2022-11-13T20:38:10.439Z,101615.38
2022-11-13T20:40:56.105Z,101617.50
2022-11-13T20:43:44.420Z,101605.28
2022-11-13T20:46:30.618Z,101601.38
2022-11-13T20:49:16.205Z,101598.03
2022-11-13T20:52:03.296Z,101597.19
2022-11-13T20:54:48.629Z,101594.56
2022-11-13T20:57:38.199Z,101600.16
2022-11-13T21:00:26.233Z,101601.56
2022-11-13T21:03:11.541Z,101588.28
2022-11-13T21:05:57.366Z,101587.88
2022-11-13T21:08:43.251Z,101589.97
2022-11-13T21:11:29.538Z,101583.56
2022-11-13T21:14:14.658Z,101583.94
2022-11-13T21:17:05.580Z,101583.94
2022-11-13T21:19:55.003Z,101575.00
2022-11-13T21:22:41.896Z,101572.50
2022-11-13T21:25:27.416Z,101568.13
2022-11-13T21:28:19.513Z,101561.13
2022-11-13T21:31:11.143Z,101555.31
2022-11-13T21:33:57.489Z,101559.00
2022-11-13T21:36:42.717Z,101546.38
2022-11-13T21:39:28.198Z,101540.63
2022-11-13T21:42:13.551Z,101545.59
2022-11-13T21:45:01.808Z,101544.25
2022-11-13T21:47:54.817Z,101541.59
2022-11-13T21:50:39.939Z,101539.75
2022-11-13T21:53:25.402Z,101532.09
2022-11-13T21:56:15.912Z,101533.66
2022-11-13T21:59:01.702Z,101529.44
2022-11-13T22:01:47.204Z,101526.84
2022-11-13T22:04:35.689Z,101530.34
2022-11-13T22:07:21.126Z,101524.22
2022-11-13T22:10:08.512Z,101519.63
2022-11-13T22:12:55.143Z,101516.22
2022-11-13T22:15:40.620Z,101510.25
2022-11-13T22:18:25.887Z,101511.03
2022-11-13T22:21:08.306Z,101500.88
2022-11-13T22:24:07.346Z,101494.22
2022-11-13T22:26:52.627Z,101493.38
2022-11-13T22:29:38.111Z,101490.53
2022-11-13T22:32:23.403Z,101488.03
2022-11-13T22:35:09.163Z,101499.34
2022-11-13T22:37:54.168Z,101496.00
2022-11-13T22:40:39.624Z,101488.22
2022-11-13T22:43:25.301Z,101488.16
2022-11-13T22:46:19.194Z,101485.44
2022-11-13T22:49:05.707Z,101481.69
2022-11-13T22:51:53.389Z,101483.28
2022-11-13T22:54:58.926Z,101472.38
2022-11-13T22:57:54.646Z,101475.88
2022-11-13T23:00:42.535Z,101464.69
2022-11-13T23:03:45.018Z,101460.63
2022-11-13T23:06:41.548Z,101468.38
2022-11-13T23:09:49.636Z,101460.28
2022-11-13T23:12:38.225Z,101464.97
2022-11-13T23:15:29.732Z,101462.56
2022-11-13T23:18:27.799Z,101449.50
2022-11-13T23:21:17.786Z,101451.81
2022-11-13T23:24:03.741Z,101437.63
2022-11-13T23:30:46.929Z,101421.88
2022-11-13T23:33:50.331Z,101421.44
2022-11-13T23:36:42.209Z,101415.97
2022-11-13T23:39:36.634Z,101418.56
2022-11-13T23:46:14.831Z,101417.59
2022-11-13T23:49:39.877Z,101411.78
2022-11-13T23:52:55.277Z,101418.38
2022-11-13T23:55:41.526Z,101426.50
2022-11-13T23:58:46.172Z,101416.75
